Time;durP1;ratioP1;P1;durP2;ratioP2;P2;SDS_P1;SDS_P2;PMS_P1;PMS_P2;Temp;Humidity;BMP_temperature;BMP_pressure;BME280_temperature;BME280_humidity;BME280_pressure;Samples;Min_cycle;Max_cycle;Signal;HPM_P1;HPM_P2
2023/06/02 00:00:51;;;;;;;8.83;6.43;;;20.10;36.90;;;;;;4991993;28;20466;-56
2023/06/02 00:03:18;;;;;;;7.10;5.17;;;20.10;36.80;;;;;;4992467;28;20422;-54
2023/06/02 00:05:44;;;;;;;8.20;5.40;;;20.00;37.10;;;;;;4992521;28;20197;-54
2023/06/02 00:08:11;;;;;;;10.57;5.70;;;20.00;37.10;;;;;;4992455;28;20414;-57
2023/06/02 00:10:38;;;;;;;9.93;6.20;;;19.90;37.20;;;;;;4992214;28;20939;-54
2023/06/02 00:13:04;;;;;;;10.90;6.25;;;19.90;37.00;;;;;;4992763;28;20450;-58
2023/06/02 00:15:31;;;;;;;9.27;5.17;;;19.80;37.00;;;;;;4992357;28;20585;-56
2023/06/02 00:17:57;;;;;;;6.20;5.60;;;19.70;37.20;;;;;;4992531;28;20499;-55
2023/06/02 00:20:26;;;;;;;7.90;5.10;;;19.80;37.10;;;;;;4992477;28;20180;-57
2023/06/02 00:22:54;;;;;;;5.70;5.10;;;19.70;37.00;;;;;;4992543;28;20171;-56
2023/06/02 00:25:19;;;;;;;6.18;5.32;;;19.70;37.00;;;;;;4992316;28;20637;-58
2023/06/02 00:27:45;;;;;;;9.50;5.90;;;19.70;37.20;;;;;;4992286;28;20281;-54
2023/06/02 00:30:12;;;;;;;9.87;7.00;;;19.70;37.10;;;;;;4992017;28;20176;-54
2023/06/02 00:32:38;;;;;;;8.85;6.50;;;19.70;37.00;;;;;;4992412;28;20629;-55
2023/06/02 00:35:04;;;;;;;14.03;6.30;;;19.60;37.10;;;;;;4992304;28;20642;-54
2023/06/02 00:37:30;;;;;;;12.48;5.88;;;19.60;37.20;;;;;;4992161;28;20677;-56
2023/06/02 00:39:55;;;;;;;6.70;4.97;;;19.50;37.00;;;;;;4992033;28;20172;-55
2023/06/02 00:42:21;;;;;;;13.03;6.77;;;19.50;37.20;;;;;;4992225;28;20203;-53
2023/06/02 00:44:47;;;;;;;7.95;5.38;;;19.50;37.30;;;;;;4992342;28;20172;-54
2023/06/02 00:47:13;;;;;;;6.53;5.90;;;19.40;37.20;;;;;;4992131;28;20558;-56
2023/06/02 00:49:39;;;;;;;8.97;5.67;;;19.40;37.30;;;;;;4991973;28;20172;-55
2023/06/02 00:52:05;;;;;;;7.93;5.93;;;19.40;37.20;;;;;;4992248;28;20176;-55
2023/06/02 00:54:32;;;;;;;6.60;5.65;;;19.40;37.30;;;;;;4974584;28;20637;-57
2023/06/02 00:56:57;;;;;;;5.93;5.30;;;19.30;37.40;;;;;;4991970;28;20207;-55
2023/06/02 00:59:23;;;;;;;7.37;5.50;;;19.30;37.30;;;;;;4991786;28;20473;-55
2023/06/02 01:01:50;;;;;;;11.40;7.20;;;19.20;37.10;;;;;;4992040;28;20944;-58
2023/06/02 01:04:17;;;;;;;8.65;4.82;;;19.20;37.30;;;;;;4992316;28;20185;-57
2023/06/02 01:06:44;;;;;;;6.97;5.00;;;19.20;37.40;;;;;;4991819;28;20218;-55
2023/06/02 01:09:13;;;;;;;6.50;4.70;;;19.20;37.50;;;;;;4991997;28;20249;-56
2023/06/02 01:11:39;;;;;;;7.38;5.35;;;19.10;37.40;;;;;;4992047;28;20167;-54
2023/06/02 01:14:05;;;;;;;7.30;4.57;;;19.10;37.60;;;;;;4994295;28;20259;-55
2023/06/02 01:16:32;;;;;;;7.28;5.85;;;19.00;37.90;;;;;;4995333;28;20457;-54
2023/06/02 01:18:59;;;;;;;13.10;5.88;;;18.90;37.60;;;;;;4995545;28;20245;-53
2023/06/02 01:21:30;;;;;;;10.95;5.80;;;18.90;37.70;;;;;;4995170;28;20657;-58
2023/06/02 01:23:59;;;;;;;12.65;6.25;;;18.90;37.80;;;;;;4995482;28;20534;-57
2023/06/02 01:26:28;;;;;;;8.80;6.22;;;18.80;37.60;;;;;;4995108;28;20200;-54
2023/06/02 01:28:54;;;;;;;8.65;5.22;;;18.80;37.70;;;;;;4995185;28;20167;-54
2023/06/02 01:31:28;;;;;;;9.05;6.03;;;18.80;37.70;;;;;;4995035;28;20230;-60
2023/06/02 01:34:15;;;;;;;7.10;6.30;;;18.80;37.90;;;;;;4995399;28;20193;-57
2023/06/02 01:36:43;;;;;;;7.78;5.60;;;18.80;37.80;;;;;;4994955;28;20701;-55
2023/06/02 01:39:10;;;;;;;7.82;6.03;;;18.70;38.10;;;;;;4994921;28;20661;-56
2023/06/02 01:41:42;;;;;;;6.75;6.05;;;18.70;38.00;;;;;;4995128;28;20211;-56
2023/06/02 01:44:09;;;;;;;7.50;5.90;;;18.70;38.20;;;;;;4995191;28;20167;-56
2023/06/02 01:46:34;;;;;;;10.05;5.80;;;18.70;38.20;;;;;;4994848;28;20210;-57
2023/06/02 01:49:00;;;;;;;6.67;5.43;;;18.60;38.10;;;;;;4994848;28;20171;-55
2023/06/02 01:51:26;;;;;;;7.53;5.67;;;18.60;38.10;;;;;;4994550;28;20181;-55
2023/06/02 01:53:52;;;;;;;12.33;6.30;;;18.60;38.10;;;;;;4994703;28;20680;-56
2023/06/02 01:56:17;;;;;;;6.97;5.77;;;18.60;38.10;;;;;;4994750;28;20191;-55
2023/06/02 01:58:43;;;;;;;8.60;6.70;;;18.60;38.10;;;;;;4995007;28;20226;-54
2023/06/02 02:01:09;;;;;;;9.00;5.32;;;18.60;38.20;;;;;;4994368;28;20210;-58
2023/06/02 02:03:37;;;;;;;8.57;7.33;;;18.60;38.10;;;;;;4994562;28;20167;-58
2023/06/02 02:06:03;;;;;;;12.27;6.90;;;18.60;38.80;;;;;;4994178;28;20210;-55
2023/06/02 02:08:29;;;;;;;9.98;5.43;;;18.60;38.20;;;;;;4976996;28;20229;-57
2023/06/02 02:10:55;;;;;;;6.47;5.67;;;18.50;38.30;;;;;;4994248;28;20173;-57
2023/06/02 02:13:20;;;;;;;7.73;5.77;;;18.50;38.20;;;;;;4976986;28;20218;-54
2023/06/02 02:15:46;;;;;;;10.17;5.83;;;18.40;38.10;;;;;;4994259;28;21182;-56
2023/06/02 02:18:12;;;;;;;10.20;6.20;;;18.40;38.40;;;;;;4994382;28;20167;-57
2023/06/02 02:20:41;;;;;;;11.40;6.13;;;18.40;38.60;;;;;;4993881;28;20207;-52
2023/06/02 02:23:06;;;;;;;6.45;5.82;;;18.30;38.60;;;;;;4994242;28;20175;-54
2023/06/02 02:25:32;;;;;;;7.93;6.70;;;18.20;38.30;;;;;;4994018;28;20222;-58
2023/06/02 02:27:58;;;;;;;9.47;6.40;;;18.20;38.40;;;;;;4993771;28;20203;-55
2023/06/02 02:30:23;;;;;;;14.17;6.73;;;18.20;38.50;;;;;;4994115;28;20178;-54
2023/06/02 02:32:51;;;;;;;8.40;6.13;;;18.20;38.60;;;;;;4994090;28;20574;-58
2023/06/02 02:35:17;;;;;;;9.27;6.28;;;18.20;38.60;;;;;;4993863;28;20717;-54
2023/06/02 02:37:44;;;;;;;12.23;7.33;;;18.20;38.60;;;;;;4994055;28;20203;-53
2023/06/02 02:40:10;;;;;;;8.52;5.85;;;18.10;38.60;;;;;;4993733;28;20183;-57
2023/06/02 02:42:35;;;;;;;9.30;5.63;;;18.10;38.60;;;;;;4993842;28;20712;-57
2023/06/02 02:45:04;;;;;;;8.50;5.97;;;18.10;38.60;;;;;;4993825;28;20402;-53
2023/06/02 02:47:30;;;;;;;6.55;5.68;;;18.10;38.80;;;;;;4993855;28;20195;-55
2023/06/02 02:49:56;;;;;;;12.10;6.30;;;18.10;38.70;;;;;;4993478;28;20663;-58
2023/06/02 02:52:21;;;;;;;7.17;5.43;;;18.00;38.70;;;;;;4993612;28;20226;-53
2023/06/02 02:54:47;;;;;;;9.83;5.87;;;18.00;38.60;;;;;;4993900;28;20183;-53
2023/06/02 02:57:13;;;;;;;7.27;6.10;;;18.00;38.90;;;;;;4993605;28;20447;-56
2023/06/02 02:59:39;;;;;;;10.82;5.45;;;18.00;38.90;;;;;;4993291;28;20432;-55
2023/06/02 03:02:06;;;;;;;13.67;6.47;;;18.00;38.70;;;;;;4993323;28;20756;-55
2023/06/02 03:04:32;;;;;;;7.93;5.93;;;17.90;38.80;;;;;;4993316;28;20641;-56
2023/06/02 03:06:58;;;;;;;8.50;5.90;;;17.90;38.90;;;;;;4993641;28;20235;-55
2023/06/02 03:09:24;;;;;;;8.70;5.53;;;17.80;39.00;;;;;;4993328;28;20178;-55
2023/06/02 03:11:50;;;;;;;13.30;6.70;;;17.80;39.00;;;;;;4993220;28;20183;-56
2023/06/02 03:14:16;;;;;;;11.50;6.50;;;17.80;39.50;;;;;;4959769;28;20189;-56
2023/06/02 03:16:44;;;;;;;12.07;5.67;;;17.70;39.00;;;;;;4993133;28;20427;-61
2023/06/02 03:19:14;;;;;;;8.32;6.63;;;17.70;39.00;;;;;;4993017;28;20434;-57
2023/06/02 03:21:44;;;;;;;9.13;6.88;;;17.70;39.20;;;;;;4988348;28;20251;-59
2023/06/02 03:24:16;;;;;;;7.20;6.10;;;17.60;39.20;;;;;;4973998;28;20207;-55
2023/06/02 03:26:42;;;;;;;10.23;6.88;;;17.70;39.20;;;;;;4973673;28;20206;-54
2023/06/02 03:29:09;;;;;;;7.60;5.20;;;17.70;39.20;;;;;;4973534;28;20172;-59
2023/06/02 03:31:36;;;;;;;15.55;6.30;;;17.70;39.30;;;;;;4973681;28;20187;-58
2023/06/02 03:34:03;;;;;;;12.00;6.57;;;17.70;39.20;;;;;;4973471;28;20170;-55
2023/06/02 03:36:29;;;;;;;8.90;5.80;;;17.70;39.20;;;;;;4973121;28;20227;-58
2023/06/02 03:38:55;;;;;;;6.90;5.35;;;17.70;39.20;;;;;;4973694;28;20184;-55
2023/06/02 03:41:21;;;;;;;13.20;7.27;;;17.70;39.40;;;;;;4973470;28;20709;-55
2023/06/02 03:43:47;;;;;;;12.23;6.65;;;17.80;39.20;;;;;;4973383;28;20403;-59
2023/06/02 03:46:13;;;;;;;10.03;5.70;;;17.80;39.20;;;;;;4973397;28;20270;-58
2023/06/02 03:48:39;;;;;;;9.70;5.80;;;17.80;39.20;;;;;;4973369;28;20940;-56
2023/06/02 03:51:05;;;;;;;11.98;5.88;;;17.90;39.40;;;;;;4973322;28;20179;-59
2023/06/02 03:53:31;;;;;;;7.67;5.10;;;17.90;39.00;;;;;;4973430;28;20243;-57
2023/06/02 03:55:57;;;;;;;11.33;5.20;;;18.00;39.00;;;;;;4973472;28;20210;-56
2023/06/02 03:58:23;;;;;;;5.80;5.00;;;18.00;38.80;;;;;;4973094;28;20183;-56
2023/06/02 04:00:49;;;;;;;18.27;6.50;;;18.10;38.60;;;;;;4972927;28;20462;-58
2023/06/02 04:03:15;;;;;;;8.50;5.07;;;18.10;38.40;;;;;;4973200;28;20237;-55
2023/06/02 04:05:41;;;;;;;7.73;6.03;;;18.10;38.30;;;;;;4971733;28;20191;-56
2023/06/02 04:08:07;;;;;;;9.00;5.43;;;18.00;38.30;;;;;;4973128;28;20411;-60
2023/06/02 04:10:33;;;;;;;10.63;5.17;;;18.10;38.50;;;;;;4972964;28;20179;-60
2023/06/02 04:12:59;;;;;;;7.00;4.78;;;18.10;38.30;;;;;;4972821;28;20738;-54
2023/06/02 04:15:25;;;;;;;9.93;6.28;;;18.00;38.10;;;;;;4973316;28;20195;-60
2023/06/02 04:17:51;;;;;;;7.50;5.57;;;18.00;38.10;;;;;;4972944;28;20192;-60
2023/06/02 04:20:17;;;;;;;7.67;6.20;;;18.00;38.50;;;;;;4972843;28;20184;-55
2023/06/02 04:22:43;;;;;;;8.77;5.40;;;18.00;38.50;;;;;;4973030;28;20411;-57
2023/06/02 04:25:09;;;;;;;10.23;6.00;;;18.10;38.70;;;;;;4955736;28;20250;-58
2023/06/02 04:27:35;;;;;;;8.80;4.65;;;18.10;38.30;;;;;;4972726;28;20435;-56
2023/06/02 04:30:01;;;;;;;10.00;4.83;;;18.10;38.30;;;;;;4979310;28;20190;-54
2023/06/02 04:32:27;;;;;;;11.05;6.35;;;18.10;38.30;;;;;;4992442;28;20171;-58
2023/06/02 04:34:53;;;;;;;12.77;5.95;;;18.20;38.30;;;;;;4992550;28;20187;-58
2023/06/02 04:37:19;;;;;;;7.77;4.83;;;18.20;38.00;;;;;;4992294;28;20330;-57
2023/06/02 04:39:47;;;;;;;9.38;5.13;;;18.20;38.00;;;;;;4992050;28;20585;-59
2023/06/02 04:42:18;;;;;;;8.27;5.63;;;18.20;37.90;;;;;;4992158;28;20286;-57
2023/06/02 04:44:44;;;;;;;11.05;5.20;;;18.10;37.80;;;;;;4992370;28;20171;-56
2023/06/02 04:47:13;;;;;;;11.55;5.47;;;18.00;37.70;;;;;;4992325;28;20202;-59
2023/06/02 04:49:40;;;;;;;10.45;5.82;;;18.00;38.00;;;;;;4995142;28;20167;-54
2023/06/02 04:52:07;;;;;;;15.48;5.80;;;18.00;38.00;;;;;;4996036;28;20180;-55
2023/06/02 04:54:33;;;;;;;10.35;4.97;;;18.00;38.40;;;;;;4995874;28;20170;-59
2023/06/02 04:57:00;;;;;;;12.68;4.95;;;18.00;38.40;;;;;;4995800;28;20286;-56
2023/06/02 04:59:26;;;;;;;10.57;6.03;;;18.00;38.40;;;;;;4995551;28;20171;-58
2023/06/02 05:01:52;;;;;;;12.88;6.45;;;18.00;38.30;;;;;;4995905;28;20215;-56
2023/06/02 05:04:19;;;;;;;16.10;5.53;;;18.10;38.50;;;;;;4995590;28;20633;-56
2023/06/02 05:06:45;;;;;;;9.80;5.07;;;18.10;38.50;;;;;;4995194;28;20462;-57
2023/06/02 05:09:11;;;;;;;9.32;5.45;;;18.20;38.30;;;;;;4995366;28;20190;-59
2023/06/02 05:11:37;;;;;;;14.43;5.63;;;18.20;38.00;;;;;;4978088;28;20727;-56
2023/06/02 05:14:03;;;;;;;7.50;4.83;;;18.20;37.90;;;;;;4995485;28;20183;-60
2023/06/02 05:16:29;;;;;;;11.63;5.53;;;18.20;38.00;;;;;;4995425;28;20195;-57
2023/06/02 05:18:55;;;;;;;16.40;6.03;;;18.30;38.40;;;;;;4995412;28;20193;-55
2023/06/02 05:21:21;;;;;;;11.47;4.10;;;18.30;38.00;;;;;;4995489;28;20206;-60
2023/06/02 05:23:47;;;;;;;8.10;4.73;;;18.40;38.00;;;;;;4995249;28;20912;-56
2023/06/02 05:26:13;;;;;;;9.93;5.53;;;18.40;37.80;;;;;;4995197;28;20513;-59
2023/06/02 05:28:38;;;;;;;11.27;4.70;;;18.40;37.80;;;;;;4995529;28;20407;-55
2023/06/02 05:31:04;;;;;;;11.20;5.50;;;18.40;37.70;;;;;;4995161;28;20203;-55
2023/06/02 05:33:30;;;;;;;11.07;5.20;;;18.40;37.80;;;;;;4995136;28;20707;-60
2023/06/02 05:35:56;;;;;;;12.93;5.10;;;18.50;38.00;;;;;;4994985;28;20441;-56
2023/06/02 05:38:22;;;;;;;15.30;5.57;;;18.50;37.80;;;;;;4995147;28;20176;-57
2023/06/02 05:40:47;;;;;;;9.83;4.77;;;18.60;37.80;;;;;;4994893;28;20202;-59
2023/06/02 05:43:13;;;;;;;14.07;5.80;;;18.60;37.50;;;;;;4995039;28;20537;-60
2023/06/02 05:45:39;;;;;;;12.50;5.73;;;18.60;37.30;;;;;;4995135;28;20171;-55
2023/06/02 05:48:05;;;;;;;11.63;5.37;;;18.60;37.20;;;;;;4994909;28;20782;-57
2023/06/02 05:50:30;;;;;;;9.80;5.03;;;18.60;37.40;;;;;;4994773;28;20320;-61
2023/06/02 05:52:56;;;;;;;9.87;5.20;;;18.70;37.70;;;;;;4994785;28;20654;-58
2023/06/02 05:55:22;;;;;;;9.90;5.23;;;18.80;37.80;;;;;;4994686;28;20262;-58
2023/06/02 05:57:48;;;;;;;26.53;6.37;;;18.80;37.10;;;;;;4994849;28;20195;-60
2023/06/02 06:00:14;;;;;;;16.27;5.10;;;18.80;37.20;;;;;;4994055;28;20638;-55
2023/06/02 06:02:40;;;;;;;13.32;7.35;;;18.80;37.60;;;;;;4977180;28;20231;-59
2023/06/02 06:05:06;;;;;;;16.03;5.70;;;18.90;37.40;;;;;;4994520;28;20728;-55
2023/06/02 06:07:32;;;;;;;11.07;5.60;;;18.80;37.40;;;;;;4994442;28;20995;-55
2023/06/02 06:09:57;;;;;;;12.10;5.60;;;18.90;37.50;;;;;;4994360;28;20187;-59
2023/06/02 06:12:23;;;;;;;10.33;5.20;;;19.00;37.50;;;;;;4994737;28;20179;-58
2023/06/02 06:14:49;;;;;;;10.70;6.43;;;19.00;37.30;;;;;;4994517;28;20202;-57
2023/06/02 06:17:15;;;;;;;25.03;5.67;;;19.10;37.40;;;;;;4994281;28;20700;-60
2023/06/02 06:19:40;;;;;;;12.80;6.77;;;19.10;36.90;;;;;;4994374;28;20190;-59
2023/06/02 06:22:06;;;;;;;12.63;5.30;;;19.10;36.60;;;;;;4994278;28;20687;-55
2023/06/02 06:24:41;;;;;;;12.47;5.67;;;19.10;36.60;;;;;;4994254;28;20175;-57
2023/06/02 06:27:07;;;;;;;17.02;6.40;;;19.20;37.20;;;;;;4994172;28;20195;-59
2023/06/02 06:29:33;;;;;;;14.07;5.38;;;19.40;37.20;;;;;;4976651;28;20552;-58
2023/06/02 06:32:00;;;;;;;21.35;6.93;;;19.50;36.70;;;;;;4994062;28;20184;-61
2023/06/02 06:34:35;;;;;;;14.55;5.13;;;19.50;37.00;;;;;;4994040;28;20191;-57
2023/06/02 06:37:01;;;;;;;10.05;5.90;;;19.60;37.00;;;;;;4993561;28;20213;-57
2023/06/02 06:39:27;;;;;;;18.23;6.20;;;19.60;36.90;;;;;;4993591;28;20172;-59
2023/06/02 06:41:52;;;;;;;9.50;4.67;;;19.70;37.10;;;;;;4993880;28;20206;-55
2023/06/02 06:44:18;;;;;;;11.17;6.10;;;19.70;36.80;;;;;;4993832;28;20172;-59
2023/06/02 06:46:44;;;;;;;14.70;6.03;;;19.70;36.30;;;;;;4993763;28;20219;-56
2023/06/02 06:49:10;;;;;;;19.43;6.30;;;19.70;36.30;;;;;;4993859;28;20808;-59
2023/06/02 06:51:36;;;;;;;16.73;6.60;;;19.70;35.80;;;;;;4976255;28;20183;-60
2023/06/02 06:54:02;;;;;;;14.40;6.73;;;19.70;36.20;;;;;;4993945;28;20464;-57
2023/06/02 06:56:28;;;;;;;23.13;8.00;;;19.60;36.00;;;;;;4993922;28;20857;-62
2023/06/02 06:58:53;;;;;;;18.50;6.80;;;19.50;37.00;;;;;;4993628;28;20805;-62
2023/06/02 07:01:19;;;;;;;12.87;6.80;;;19.60;35.90;;;;;;4993291;28;20450;-55
2023/06/02 07:03:45;;;;;;;23.03;8.13;;;19.60;35.90;;;;;;4993639;28;20179;-59
2023/06/02 07:06:11;;;;;;;15.93;6.60;;;19.50;36.40;;;;;;4993229;28;20477;-60
2023/06/02 07:08:36;;;;;;;8.73;6.20;;;19.60;36.80;;;;;;4993480;28;20218;-57
2023/06/02 07:11:02;;;;;;;14.93;7.33;;;19.70;36.60;;;;;;4992528;28;20167;-59
2023/06/02 07:13:28;;;;;;;12.87;7.17;;;19.90;36.90;;;;;;4975874;28;20168;-58
2023/06/02 07:15:54;;;;;;;12.87;6.83;;;20.00;36.10;;;;;;4992701;28;20179;-54
2023/06/02 07:18:20;;;;;;;21.93;9.23;;;20.10;36.10;;;;;;4993343;28;20468;-61
2023/06/02 07:20:46;;;;;;;11.55;6.05;;;20.20;36.40;;;;;;4992879;28;20500;-55
2023/06/02 07:23:12;;;;;;;10.63;6.47;;;20.30;36.30;;;;;;4993278;28;20175;-58
2023/06/02 07:25:37;;;;;;;11.53;7.30;;;20.30;35.60;;;;;;4993166;28;20502;-57
2023/06/02 07:28:04;;;;;;;14.80;7.50;;;20.40;35.90;;;;;;4975852;28;20190;-57
2023/06/02 07:30:31;;;;;;;15.63;6.78;;;20.40;36.20;;;;;;4993011;28;20163;-58
2023/06/02 07:32:57;;;;;;;20.50;7.57;;;20.50;36.10;;;;;;4993263;28;20190;-56
2023/06/02 07:35:23;;;;;;;18.30;5.90;;;20.60;35.30;;;;;;4993068;28;20250;-60
2023/06/02 07:37:53;;;;;;;12.13;6.45;;;20.70;35.30;;;;;;4992962;28;20429;-60
2023/06/02 07:40:19;;;;;;;16.58;8.38;;;20.80;35.00;;;;;;4992757;28;20256;-55
2023/06/02 07:42:46;;;;;;;12.27;6.53;;;20.90;35.40;;;;;;4992801;28;20202;-57
2023/06/02 07:45:12;;;;;;;15.77;7.93;;;20.90;35.10;;;;;;4992834;28;20178;-59
2023/06/02 07:47:38;;;;;;;12.90;6.30;;;21.00;35.00;;;;;;4992902;28;20194;-57
2023/06/02 07:50:04;;;;;;;11.90;6.13;;;21.00;34.40;;;;;;4992782;28;20171;-57
2023/06/02 07:52:30;;;;;;;19.90;6.78;;;21.10;34.90;;;;;;4992948;28;20250;-61
2023/06/02 07:54:56;;;;;;;17.20;6.50;;;21.20;34.50;;;;;;4992895;28;20587;-57
2023/06/02 07:57:22;;;;;;;10.70;6.10;;;21.40;34.50;;;;;;4992544;28;20743;-57
2023/06/02 07:59:49;;;;;;;20.67;7.28;;;21.40;34.50;;;;;;4992317;28;20168;-60
2023/06/02 08:02:15;;;;;;;19.42;7.25;;;21.60;34.70;;;;;;4975159;28;20343;-57
2023/06/02 08:04:40;;;;;;;18.33;6.40;;;21.60;34.10;;;;;;4992557;28;20198;-59
2023/06/02 08:07:06;;;;;;;10.67;6.43;;;21.60;33.90;;;;;;4992572;28;20198;-58
2023/06/02 08:09:32;;;;;;;11.20;5.83;;;21.50;33.90;;;;;;4992377;28;20566;-59
2023/06/02 08:11:58;;;;;;;16.00;7.00;;;21.60;34.80;;;;;;4992528;28;20407;-59
2023/06/02 08:14:30;;;;;;;17.67;7.93;;;21.80;34.60;;;;;;4992302;28;20218;-55
2023/06/02 08:16:56;;;;;;;8.45;5.50;;;22.00;33.50;;;;;;4974835;28;20728;-62
2023/06/02 08:19:28;;;;;;;11.83;6.47;;;22.00;34.00;;;;;;4992347;28;20179;-57
2023/06/02 08:21:54;;;;;;;13.53;6.57;;;22.10;34.10;;;;;;4992620;28;20202;-60
2023/06/02 08:24:24;;;;;;;18.60;6.23;;;22.20;34.10;;;;;;4996340;28;20905;-55
2023/06/02 08:26:50;;;;;;;13.23;6.47;;;22.40;34.10;;;;;;4996361;28;20504;-59
2023/06/02 08:29:16;;;;;;;10.10;6.00;;;22.40;32.70;;;;;;4995722;28;20504;-55
2023/06/02 08:31:42;;;;;;;16.63;8.20;;;22.30;33.30;;;;;;4996422;28;20426;-56
2023/06/02 08:34:08;;;;;;;10.27;5.93;;;22.30;33.60;;;;;;4996509;28;20420;-59
2023/06/02 08:36:35;;;;;;;8.73;6.40;;;22.30;33.90;;;;;;4996271;28;20521;-56
2023/06/02 08:39:06;;;;;;;11.33;6.30;;;22.40;33.50;;;;;;4996438;28;20410;-56
2023/06/02 08:41:36;;;;;;;10.37;5.37;;;22.50;33.80;;;;;;4995950;28;20478;-60
2023/06/02 08:44:02;;;;;;;9.70;5.40;;;22.60;33.60;;;;;;4996344;28;20402;-57
2023/06/02 08:46:27;;;;;;;19.10;6.00;;;22.70;33.40;;;;;;4996273;28;20426;-57
2023/06/02 08:48:57;;;;;;;15.80;6.43;;;22.80;33.00;;;;;;4996035;28;20171;-59
2023/06/02 08:51:22;;;;;;;15.90;6.47;;;22.80;32.00;;;;;;4995902;28;20190;-56
2023/06/02 08:53:49;;;;;;;15.60;5.83;;;22.80;32.60;;;;;;4995988;28;20785;-55
2023/06/02 08:56:15;;;;;;;13.00;6.80;;;22.70;32.00;;;;;;4995670;28;20225;-57
2023/06/02 08:58:45;;;;;;;11.23;6.87;;;22.70;32.70;;;;;;4995808;28;20406;-61
2023/06/02 09:01:11;;;;;;;17.25;6.00;;;22.90;33.40;;;;;;4995551;28;20461;-56
2023/06/02 09:03:37;;;;;;;11.90;5.60;;;22.90;32.30;;;;;;4995823;28;20672;-58
2023/06/02 09:06:23;;;;;;;10.17;5.87;;;23.00;31.70;;;;;;4995587;28;20458;-62
2023/06/02 09:08:57;;;;;;;11.63;5.87;;;23.00;32.20;;;;;;4995548;28;20394;-57
2023/06/02 09:11:24;;;;;;;13.30;5.80;;;23.10;32.50;;;;;;4995387;28;20409;-55
2023/06/02 09:13:49;;;;;;;16.40;5.03;;;23.30;33.30;;;;;;4995549;28;20410;-58
2023/06/02 09:16:15;;;;;;;12.93;5.30;;;23.40;32.60;;;;;;4995409;28;20433;-59
2023/06/02 09:18:56;;;;;;;12.63;5.33;;;23.60;30.60;;;;;;4995513;28;20171;-57
2023/06/02 09:21:29;;;;;;;13.37;5.70;;;23.50;31.90;;;;;;4995152;28;20207;-54
2023/06/02 09:24:00;;;;;;;11.03;5.17;;;23.60;30.60;;;;;;4995363;28;20838;-58
2023/06/02 09:26:30;;;;;;;10.53;4.13;;;23.50;31.30;;;;;;4995226;28;20512;-56
2023/06/02 09:29:12;;;;;;;16.13;4.80;;;23.60;31.00;;;;;;4995170;28;20494;-55
2023/06/02 09:31:54;;;;;;;6.90;4.23;;;23.70;31.80;;;;;;4995225;28;20410;-56
2023/06/02 09:34:32;;;;;;;14.87;5.30;;;23.60;30.30;;;;;;4994360;28;20635;-56
2023/06/02 09:37:13;;;;;;;12.90;4.70;;;23.60;31.20;;;;;;4995158;28;20435;-58
2023/06/02 09:39:45;;;;;;;8.13;4.20;;;23.60;31.70;;;;;;4994826;28;20542;-57
2023/06/02 09:42:13;;;;;;;10.63;3.90;;;23.60;30.60;;;;;;4994919;28;20504;-56
2023/06/02 09:44:40;;;;;;;12.93;5.20;;;23.50;31.00;;;;;;4995193;28;20417;-62
2023/06/02 09:47:19;;;;;;;8.03;4.67;;;23.40;30.80;;;;;;4977497;28;20457;-57
2023/06/02 09:49:45;;;;;;;12.63;4.83;;;23.30;30.70;;;;;;4994998;28;20403;-60
2023/06/02 09:52:20;;;;;;;13.33;4.73;;;23.10;31.20;;;;;;4994935;28;20897;-57
2023/06/02 09:54:48;;;;;;;11.87;5.77;;;23.20;31.10;;;;;;4994704;28;20179;-59
2023/06/02 09:57:15;;;;;;;10.00;5.30;;;23.10;31.50;;;;;;4994693;28;20435;-61
2023/06/02 09:59:43;;;;;;;6.33;4.13;;;23.20;31.80;;;;;;4994713;28;20425;-57
2023/06/02 10:02:09;;;;;;;14.57;5.67;;;23.30;32.00;;;;;;4994647;28;20457;-56
2023/06/02 10:04:36;;;;;;;5.83;3.23;;;23.40;31.70;;;;;;4994468;28;20901;-61
2023/06/02 10:07:13;;;;;;;13.23;3.60;;;23.40;30.50;;;;;;4994490;28;20925;-57
2023/06/02 10:10:06;;;;;;;5.77;3.47;;;23.50;31.80;;;;;;4994588;28;20750;-56
2023/06/02 10:12:37;;;;;;;9.70;4.13;;;23.70;31.00;;;;;;4994548;28;20399;-57
2023/06/02 10:15:21;;;;;;;7.93;4.57;;;23.90;30.50;;;;;;4994489;28;20901;-55
2023/06/02 10:18:01;;;;;;;9.97;3.70;;;24.20;31.00;;;;;;4994207;28;20430;-56
2023/06/02 10:20:50;;;;;;;7.53;3.70;;;24.20;29.70;;;;;;4994151;28;20453;-57
2023/06/02 10:23:19;;;;;;;7.60;3.53;;;24.30;30.10;;;;;;4994345;28;20398;-56
2023/06/02 10:26:04;;;;;;;5.27;3.03;;;24.50;30.40;;;;;;4994073;28;20402;-55
2023/06/02 10:28:31;;;;;;;15.20;5.40;;;24.70;30.10;;;;;;4976777;28;20842;-59
2023/06/02 10:31:11;;;;;;;8.03;3.83;;;24.80;29.40;;;;;;4993958;28;20438;-56
2023/06/02 10:33:47;;;;;;;9.50;3.73;;;24.90;28.40;;;;;;4994187;28;20461;-60
2023/06/02 10:36:17;;;;;;;9.47;4.03;;;24.70;28.10;;;;;;4993943;28;20777;-55
2023/06/02 10:38:44;;;;;;;11.73;4.10;;;24.60;28.30;;;;;;4993913;28;20445;-57
2023/06/02 10:41:10;;;;;;;11.40;3.67;;;24.50;28.70;;;;;;4993654;28;20901;-55
2023/06/02 10:43:36;;;;;;;14.03;4.60;;;24.40;29.20;;;;;;4993889;28;20410;-55
2023/06/02 10:46:21;;;;;;;9.30;4.77;;;24.30;29.40;;;;;;4993757;28;20789;-57
2023/06/02 10:48:48;;;;;;;11.73;4.40;;;24.30;29.70;;;;;;4993524;28;20398;-59
2023/06/02 10:51:14;;;;;;;5.73;3.13;;;24.30;30.20;;;;;;4993380;28;20805;-59
2023/06/02 10:54:06;;;;;;;6.73;4.27;;;24.40;29.60;;;;;;4993641;28;20409;-58
2023/06/02 10:56:41;;;;;;;8.80;4.50;;;24.60;28.50;;;;;;4993477;28;20935;-57
2023/06/02 10:59:08;;;;;;;9.40;3.93;;;24.90;29.60;;;;;;4993391;28;20406;-60
2023/06/02 11:01:45;;;;;;;12.60;4.10;;;25.10;28.90;;;;;;4993267;28;20458;-57
2023/06/02 11:04:28;;;;;;;8.43;3.57;;;25.40;29.20;;;;;;4993513;28;20800;-60
2023/06/02 11:07:32;;;;;;;9.17;4.70;;;25.70;27.90;;;;;;4993579;28;20434;-57
2023/06/02 11:10:04;;;;;;;6.87;3.10;;;25.90;27.80;;;;;;4879502;29;20424;-59
2023/06/02 11:12:54;;;;;;;8.10;4.07;;;25.90;27.40;;;;;;4895517;29;20398;-56
2023/06/02 11:15:20;;;;;;;12.37;6.27;;;26.00;27.70;;;;;;4890508;29;20419;-57
2023/06/02 11:17:49;;;;;;;10.43;3.87;;;25.90;27.20;;;;;;4895275;29;20483;-57
2023/06/02 11:20:16;;;;;;;9.33;4.23;;;25.90;27.40;;;;;;4895070;29;20413;-55
2023/06/02 11:22:43;;;;;;;6.43;3.83;;;25.80;26.60;;;;;;4895110;29;20471;-56
2023/06/02 11:25:13;;;;;;;12.20;3.93;;;25.70;26.80;;;;;;4895194;29;20439;-60
2023/06/02 11:27:42;;;;;;;9.27;3.77;;;25.50;26.60;;;;;;4895095;29;20805;-56
2023/06/02 11:30:16;;;;;;;8.93;3.67;;;25.40;27.30;;;;;;4894887;29;20415;-54
2023/06/02 11:32:48;;;;;;;10.13;3.47;;;25.30;27.40;;;;;;4895051;29;20426;-61
2023/06/02 11:35:16;;;;;;;8.53;3.63;;;25.30;28.60;;;;;;4895028;29;20944;-58
2023/06/02 11:37:43;;;;;;;9.53;3.60;;;25.20;28.10;;;;;;4894817;29;20442;-55
2023/06/02 11:40:12;;;;;;;9.00;4.17;;;25.20;28.70;;;;;;4920908;28;20422;-58
2023/06/02 11:42:42;;;;;;;8.00;3.67;;;25.10;28.30;;;;;;4992739;28;20443;-55
2023/06/02 11:45:20;;;;;;;7.63;3.80;;;25.10;27.90;;;;;;4992938;28;20493;-57
2023/06/02 11:47:49;;;;;;;10.43;4.30;;;25.00;28.30;;;;;;4992933;28;20430;-56
2023/06/02 11:50:19;;;;;;;7.87;3.80;;;24.90;28.00;;;;;;4975101;28;20503;-53
2023/06/02 11:52:45;;;;;;;8.57;4.33;;;24.90;28.40;;;;;;4992641;28;20421;-54
2023/06/02 11:55:11;;;;;;;7.93;3.70;;;24.80;28.30;;;;;;4992624;28;20410;-54
2023/06/02 11:57:37;;;;;;;10.17;3.87;;;24.70;28.30;;;;;;4992104;28;20203;-57
2023/06/02 12:00:09;;;;;;;8.53;4.30;;;24.60;28.20;;;;;;4992450;28;20464;-54
2023/06/02 12:02:43;;;;;;;5.63;3.30;;;24.40;28.50;;;;;;4992529;28;20469;-55
2023/06/02 12:05:28;;;;;;;7.90;3.80;;;24.20;28.70;;;;;;4992684;28;20437;-56
2023/06/02 12:07:53;;;;;;;8.00;4.57;;;24.00;29.10;;;;;;4992510;28;20484;-55
2023/06/02 12:10:19;;;;;;;29.80;6.13;;;23.80;29.50;;;;;;4992238;28;20422;-59
2023/06/02 12:12:46;;;;;;;11.93;4.40;;;23.70;29.90;;;;;;4990116;28;20179;-55
2023/06/02 12:15:15;;;;;;;7.63;3.50;;;23.50;30.10;;;;;;4991533;28;20179;-55
2023/06/02 12:17:44;;;;;;;12.83;4.30;;;23.40;30.40;;;;;;4992063;28;20441;-56
2023/06/02 12:20:10;;;;;;;6.30;4.07;;;23.30;30.70;;;;;;4988715;28;20421;-58
2023/06/02 12:22:51;;;;;;;12.57;4.43;;;23.30;30.60;;;;;;4991911;28;20450;-55
2023/06/02 12:25:17;;;;;;;7.83;3.73;;;23.30;30.80;;;;;;4992192;28;20412;-55
2023/06/02 12:27:43;;;;;;;8.17;3.97;;;23.20;30.80;;;;;;4992373;28;20438;-58
2023/06/02 12:30:09;;;;;;;6.40;4.27;;;23.20;30.90;;;;;;4991922;28;20415;-55
2023/06/02 12:32:35;;;;;;;12.47;4.80;;;23.10;31.30;;;;;;4992084;28;20179;-54
2023/06/02 12:35:01;;;;;;;9.23;4.30;;;23.10;31.40;;;;;;4991770;28;20935;-57
2023/06/02 12:37:29;;;;;;;7.37;4.53;;;23.10;31.20;;;;;;4991898;28;20199;-58
2023/06/02 12:39:55;;;;;;;10.67;4.17;;;23.10;31.40;;;;;;4974193;28;20777;-54
2023/06/02 12:42:21;;;;;;;8.90;4.37;;;23.10;31.40;;;;;;4992282;28;20469;-55
2023/06/02 12:44:49;;;;;;;8.43;4.30;;;23.10;31.30;;;;;;4992339;28;20406;-58